Time,TemperatureF,DewpointF,PressureIn,WindDirection,WindDirectionDegrees,WindSpeedMPH,WindSpeedGustMPH,Humidity,HourlyPrecipIn,Conditions,Clouds,dailyrainin,SoftwareType,DateUTC
2013-07-01 00:02:00,70.5,65.4,29.80,SSW,211,0.0,2.0,84,0.00,,---,0.00,VWS V13.01,2013-07-01 04:02:00,
2013-07-01 00:32:00,70.4,65.7,29.81,SSW,211,0.0,1.0,85,0.00,,---,0.00,VWS V13.01,2013-07-01 04:32:00,
2013-07-01 01:02:00,70.1,65.7,29.81,SSW,211,0.0,0.0,86,0.00,,---,0.00,VWS V13.01,2013-07-01 05:02:00,
2013-07-01 01:32:00,70.1,66.1,29.80,SSW,211,0.0,0.0,87,0.00,,---,0.00,VWS V13.01,2013-07-01 05:32:00,
2013-07-01 02:02:00,69.8,65.8,29.80,SSW,211,0.0,2.0,87,0.00,,---,0.00,VWS V13.01,2013-07-01 06:02:00,
2013-07-01 02:32:00,69.9,65.9,29.79,SSW,211,0.0,1.0,87,0.00,,---,0.00,VWS V13.01,2013-07-01 06:32:00,
2013-07-01 03:02:00,69.7,65.7,29.79,SSW,211,0.0,1.0,87,0.00,,---,0.00,VWS V13.01,2013-07-01 07:02:00,
2013-07-01 03:32:00,69.9,65.9,29.79,SSW,201,0.0,2.0,87,0.00,,---,0.00,VWS V13.01,2013-07-01 07:32:00,
2013-07-01 04:02:00,69.3,65.6,29.79,South,189,0.0,3.0,88,0.00,,---,0.00,VWS V13.01,2013-07-01 08:02:00,
2013-07-01 04:32:00,69.0,65.3,29.79,South,188,0.0,4.0,88,0.00,,---,0.00,VWS V13.01,2013-07-01 08:32:00,
2013-07-01 05:02:00,69.1,65.4,29.80,South,188,0.0,3.0,88,0.00,,---,0.00,VWS V13.01,2013-07-01 09:02:00,
2013-07-01 05:32:00,69.1,65.1,29.82,South,188,0.0,2.0,87,0.00,,---,0.00,VWS V13.01,2013-07-01 09:32:00,
2013-07-01 06:02:00,69.2,65.5,29.83,South,188,0.0,0.0,88,0.00,,---,0.00,VWS V13.01,2013-07-01 10:02:00,
2013-07-01 06:32:00,69.1,65.4,29.83,South,188,0.0,1.0,88,0.00,,---,0.00,VWS V13.01,2013-07-01 10:32:00,
2013-07-01 07:02:00,69.2,65.5,29.83,South,188,0.0,0.0,88,0.00,,---,0.00,VWS V13.01,2013-07-01 11:02:00,
2013-07-01 07:32:00,69.2,65.5,29.83,South,190,0.0,1.0,88,0.00,,---,0.00,VWS V13.01,2013-07-01 11:32:00,
2013-07-01 08:02:00,70.0,66.0,29.84,South,190,0.0,2.0,87,0.00,,---,0.00,VWS V13.01,2013-07-01 12:02:00,
2013-07-01 08:32:00,71.2,66.1,29.85,South,190,0.0,2.0,84,0.00,,---,0.00,VWS V13.01,2013-07-01 12:32:00,
2013-07-01 09:02:00,72.1,66.3,29.85,NW,306,0.0,3.0,82,0.00,,---,0.00,VWS V13.01,2013-07-01 13:02:00,
2013-07-01 09:32:00,73.2,66.3,29.86,SW,222,0.0,4.0,79,0.01,,---,0.01,VWS V13.01,2013-07-01 13:32:00,
2013-07-01 10:02:00,70.6,66.9,29.87,SW,216,2.0,2.0,88,0.24,,---,0.24,VWS V13.01,2013-07-01 14:02:00,
2013-07-01 10:32:00,71.6,67.9,29.86,SW,216,0.0,2.0,88,0.24,,---,0.24,VWS V13.01,2013-07-01 14:32:00,
2013-07-01 11:02:00,73.5,68.4,29.87,WNW,297,1.0,2.0,84,0.23,,---,0.24,VWS V13.01,2013-07-01 15:02:00,
2013-07-01 11:32:00,73.2,68.8,29.87,WNW,301,0.0,3.0,86,0.00,,---,0.24,VWS V13.01,2013-07-01 15:32:00,
2013-07-01 12:02:00,76.7,70.1,29.87,West,279,1.0,3.0,80,0.00,,---,0.24,VWS V13.01,2013-07-01 16:02:00,
2013-07-01 12:32:00,78.2,69.2,29.86,WSW,254,0.0,3.0,74,0.00,,---,0.24,VWS V13.01,2013-07-01 16:32:00,
2013-07-01 13:02:00,79.3,69.1,29.85,South,178,0.0,4.0,71,0.00,,---,0.24,VWS V13.01,2013-07-01 17:02:00,
2013-07-01 13:32:00,81.3,70.2,29.84,SW,217,1.0,4.0,69,0.00,,---,0.24,VWS V13.01,2013-07-01 17:32:00,
2013-07-01 14:02:00,82.4,68.1,29.84,West,280,2.0,4.0,62,0.00,,---,0.24,VWS V13.01,2013-07-01 18:02:00,
2013-07-01 14:32:00,82.5,69.1,29.84,West,263,0.0,5.0,64,0.00,,---,0.24,VWS V13.01,2013-07-01 18:32:00,
2013-07-01 15:02:00,81.7,68.8,29.84,ENE,72,0.0,6.0,65,0.00,,---,0.24,VWS V13.01,2013-07-01 19:02:00,
2013-07-01 15:32:00,82.9,68.1,29.83,SSW,211,1.0,5.0,61,0.00,,---,0.24,VWS V13.01,2013-07-01 19:32:00,
2013-07-01 16:02:00,82.0,70.0,29.84,SW,219,0.0,7.0,67,0.00,,---,0.24,VWS V13.01,2013-07-01 20:02:00,
2013-07-01 16:32:00,81.5,69.5,29.84,SW,219,2.0,6.0,67,0.00,,---,0.24,VWS V13.01,2013-07-01 20:32:00,
2013-07-01 17:02:00,81.2,69.2,29.84,SW,232,0.0,7.0,67,0.00,,---,0.24,VWS V13.01,2013-07-01 21:02:00,
2013-07-01 17:32:00,81.5,69.1,29.83,SW,226,2.0,9.0,66,0.00,,---,0.24,VWS V13.01,2013-07-01 21:32:00,
2013-07-01 18:02:00,81.2,68.8,29.83,SSW,212,4.0,9.0,66,0.00,,---,0.24,VWS V13.01,2013-07-01 22:02:00,
2013-07-01 18:32:00,80.2,69.1,29.83,SSW,207,4.0,10.0,69,0.00,,---,0.24,VWS V13.01,2013-07-01 22:32:00,
2013-07-01 19:02:00,78.7,68.1,29.84,West,260,0.0,9.0,70,0.00,,---,0.24,VWS V13.01,2013-07-01 23:02:00,
2013-07-01 19:32:00,77.9,68.6,29.86,SSW,204,0.0,7.0,73,0.00,,---,0.24,VWS V13.01,2013-07-01 23:32:00,
2013-07-01 20:02:00,77.3,68.8,29.87,SW,230,0.0,10.0,75,0.00,,---,0.24,VWS V13.01,2013-07-02 00:02:00,
2013-07-01 20:32:00,76.7,68.9,29.89,SSW,196,0.0,5.0,77,0.00,,---,0.24,VWS V13.01,2013-07-02 00:32:00,
2013-07-01 21:02:00,75.7,68.4,29.90,North,353,0.0,6.0,78,0.01,,---,0.25,VWS V13.01,2013-07-02 01:02:00,
2013-07-01 21:32:00,71.5,66.8,29.91,NNW,344,0.0,6.0,85,0.05,,---,0.29,VWS V13.01,2013-07-02 01:32:00,
2013-07-01 22:02:00,70.5,67.1,29.91,NNW,344,0.0,2.0,89,0.16,,---,0.40,VWS V13.01,2013-07-02 02:02:00,
2013-07-01 22:32:00,70.0,67.3,29.93,NNE,17,0.0,4.0,91,0.15,,---,0.40,VWS V13.01,2013-07-02 02:32:00,
2013-07-01 23:02:00,70.1,67.7,29.93,NNE,17,0.0,1.0,92,0.11,,---,0.40,VWS V13.01,2013-07-02 03:02:00,
2013-07-01 23:32:00,69.9,67.8,29.92,NNE,17,0.0,0.0,93,0.00,,---,0.40,VWS V13.01,2013-07-02 03:32:00,